Portada
METAR-TAF:

METAR-TAF

Aeropuertos :

Tánger, Marruecos

Aeropuerto de Tánger

latitud: 35-44N, longitud: 005-54W, altitud: 19 m

Observación

El informe se hizo hace 34 minutos, a las 04:00 UTC
Viento 12 kt del sur-suroeste
Temperatura 20°C
Humedad 64%
Presión 1014 hPa
Visibilidad: 8000 m
Escasas nubes a una altura de 1600 ft

METAR: GMTT 210400Z 20012KT 8000 FEW016 20/13 Q1014 NOSIG

Hora: 05:34 (04:34 UTC)

Pronóstico

El informe se hizo hace 5 horas y 34 minutos, a las 23:00 UTC
Pronóstico válido del 21 a las 00 UTC al 22 a las 06 UTC
Viento 12 kt del oeste-suroeste
Visibilidad: 8000 m
Escasas nubes a una altura de 1600 ft
Temporalmente
del 21 a las 02 UTC al 21 a las 08 UTC
Viento 2 kt con dirección variable
Visibilidad: 4000 m
Escasas nubes a una altura de 800 ft
neblina

TAF: GMTT 202300Z 2100/2206 24012KT 8000 FEW016 TEMPO 2102/2108 VRB02KT 4000 BR FEW008

Observaciones y pronósticos meteorológicos de más de 4000 aeropuertos (mensajes METAR y TAF).

Los puntos amarillos y rojos representan las estaciones disponibles.

Ponga el ratón en el punto deseado para ver el nombre de la estación.

Haga clic para ver las observaciones y los pronósticos meteorológicos.

Para cambiar el mapa : haga clic en los botones verdes con una cruz de color negro para hacer un zoom, en el botón verde con un guión para alejar o en las flechas verdes para mapas adyacentes.


METAR-TAF: